createdAt,value
2023-02-11T09:09:25.875Z,24.93
2023-02-11T09:10:25.869Z,24.95
2023-02-11T09:12:25.876Z,24.95
2023-02-11T09:13:25.881Z,24.97
2023-02-11T09:14:25.885Z,24.97
2023-02-11T09:15:25.897Z,24.95
2023-02-11T09:16:25.978Z,24.94
2023-02-11T09:17:25.907Z,24.97
2023-02-11T09:18:25.912Z,24.95
2023-02-11T09:19:25.936Z,24.95
2023-02-11T09:20:25.935Z,24.94
2023-02-11T09:21:25.947Z,24.97
2023-02-11T09:23:25.938Z,24.98
2023-02-11T09:24:26.019Z,24.97
2023-02-11T09:25:25.965Z,24.94
2023-02-11T09:26:25.952Z,24.95
2023-02-11T09:27:25.989Z,24.97
2023-02-11T09:28:26.088Z,24.95
2023-02-11T09:29:26.014Z,24.95
2023-02-11T09:30:25.987Z,24.93
2023-02-11T09:31:26.113Z,24.95
2023-02-11T09:32:25.998Z,24.95
2023-02-11T09:33:25.994Z,24.95
2023-02-11T09:34:26.007Z,24.95
2023-02-11T09:35:26.014Z,24.95
2023-02-11T09:36:26.014Z,24.95
2023-02-11T09:37:26.025Z,24.97
2023-02-11T09:38:26.016Z,24.94
2023-02-11T09:39:26.022Z,24.95
2023-02-11T09:40:26.025Z,24.95
2023-02-11T09:41:26.033Z,24.97
2023-02-11T09:42:26.034Z,24.97
2023-02-11T09:43:26.070Z,24.99
2023-02-11T09:44:26.056Z,24.97
2023-02-11T09:45:26.085Z,24.95
2023-02-11T09:46:26.128Z,24.95
2023-02-11T09:47:26.065Z,24.97
2023-02-11T09:48:26.071Z,24.95
2023-02-11T09:49:26.067Z,24.95
2023-02-11T09:50:26.072Z,24.97
2023-02-11T09:51:26.078Z,24.94
2023-02-11T09:52:26.084Z,24.95
2023-02-11T09:53:26.084Z,24.94
2023-02-11T09:54:26.084Z,24.94
2023-02-11T09:55:26.091Z,24.95
2023-02-11T09:56:26.101Z,24.95
2023-02-11T09:57:28.956Z,24.97
2023-02-11T09:58:26.114Z,24.95
2023-02-11T09:59:26.156Z,24.98
2023-02-11T10:00:26.125Z,24.97
2023-02-11T10:01:26.208Z,24.94
2023-02-11T10:02:26.131Z,24.95
2023-02-11T10:03:26.137Z,24.95
2023-02-11T10:04:26.218Z,24.95
2023-02-11T10:05:26.160Z,24.98
2023-02-11T10:06:26.156Z,24.97
2023-02-11T10:07:26.146Z,24.97
2023-02-11T10:08:26.147Z,24.98
2023-02-11T10:09:26.153Z,24.95
2023-02-11T10:10:26.162Z,24.98
2023-02-11T10:11:31.881Z,24.97
2023-02-11T10:12:26.161Z,24.98
2023-02-11T10:13:26.166Z,24.95
2023-02-11T10:14:26.165Z,24.97
2023-02-11T10:15:26.252Z,24.97
2023-02-11T10:16:26.662Z,24.98
2023-02-11T10:17:26.166Z,24.97
2023-02-11T10:18:26.157Z,24.97
2023-02-11T10:19:26.168Z,24.97
2023-02-11T10:20:26.169Z,24.94
2023-02-11T10:21:26.170Z,24.97
2023-02-11T10:22:26.185Z,24.97
2023-02-11T10:23:26.179Z,24.95
2023-02-11T10:24:26.179Z,24.95
2023-02-11T10:25:26.196Z,24.95
2023-02-11T10:26:26.187Z,24.95
2023-02-11T10:27:26.199Z,24.97
2023-02-11T10:28:26.320Z,24.95
2023-02-11T10:29:26.190Z,24.97
2023-02-11T10:30:26.224Z,24.97
2023-02-11T10:31:26.358Z,24.95
2023-02-11T10:32:26.206Z,24.97
2023-02-11T10:33:26.212Z,24.97
2023-02-11T10:34:26.214Z,24.95
2023-02-11T10:35:26.215Z,24.95
2023-02-11T10:36:26.222Z,24.94
2023-02-11T10:37:26.224Z,24.95
2023-02-11T10:38:26.230Z,24.97
2023-02-11T10:39:26.237Z,24.97
2023-02-11T10:40:26.352Z,24.98
2023-02-11T10:41:26.236Z,24.98
2023-02-11T10:42:26.237Z,24.95
2023-02-11T10:43:26.253Z,24.95
2023-02-11T10:44:26.261Z,24.98
2023-02-11T10:45:26.258Z,24.98
2023-02-11T10:46:26.283Z,24.97
2023-02-11T10:47:26.300Z,24.99
2023-02-11T10:48:26.280Z,24.97
2023-02-11T10:49:26.276Z,24.99
2023-02-11T10:50:26.274Z,24.97
2023-02-11T10:51:26.280Z,24.97
2023-02-11T10:52:27.209Z,24.97
2023-02-11T10:53:26.289Z,24.98
2023-02-11T10:54:26.294Z,24.97
2023-02-11T10:55:26.296Z,24.98
2023-02-11T10:56:26.296Z,24.97
2023-02-11T10:57:26.325Z,24.98
2023-02-11T10:58:26.307Z,24.95
2023-02-11T10:59:26.319Z,24.97
2023-02-11T11:00:26.322Z,24.95
2023-02-11T11:01:26.391Z,24.98
2023-02-11T11:02:26.324Z,24.97
2023-02-11T11:03:26.349Z,24.97
2023-02-11T11:04:26.384Z,24.94
2023-02-11T11:05:26.341Z,24.95
2023-02-11T11:06:26.337Z,24.97
2023-02-11T11:07:26.356Z,24.95
2023-02-11T11:08:27.268Z,24.95
2023-02-11T11:09:26.354Z,24.97
2023-02-11T11:10:26.367Z,24.97
2023-02-11T11:11:26.399Z,24.95
2023-02-11T11:12:26.368Z,24.97
2023-02-11T11:13:26.351Z,24.98
2023-02-11T11:14:26.363Z,24.97
2023-02-11T11:15:26.376Z,24.99
2023-02-11T11:16:26.418Z,24.95
2023-02-11T11:17:26.380Z,24.95
2023-02-11T11:18:26.349Z,24.95
2023-02-11T11:19:26.385Z,24.95
2023-02-11T11:20:26.365Z,24.97
2023-02-11T11:21:26.355Z,24.95
2023-02-11T11:22:26.388Z,24.97
2023-02-11T11:23:26.366Z,24.95
2023-02-11T11:24:27.949Z,24.98
2023-02-11T11:25:27.446Z,24.98
2023-02-11T11:26:26.507Z,24.98
2023-02-11T11:27:26.528Z,24.97
2023-02-11T11:28:26.637Z,24.98
2023-02-11T11:29:26.522Z,24.97
2023-02-11T11:30:26.528Z,24.97
2023-02-11T11:31:26.698Z,24.97
2023-02-11T11:32:26.559Z,24.99
2023-02-11T11:33:26.527Z,24.98
2023-02-11T11:34:26.528Z,24.98
2023-02-11T11:35:26.555Z,24.97
2023-02-11T11:36:26.536Z,24.95
2023-02-11T11:37:26.574Z,24.98
2023-02-11T11:38:26.533Z,24.95
2023-02-11T11:39:26.532Z,24.97
2023-02-11T11:40:26.532Z,24.97
2023-02-11T11:41:26.531Z,24.98
2023-02-11T11:42:26.545Z,24.95
2023-02-11T11:43:26.564Z,24.98
2023-02-11T11:44:26.546Z,24.97
2023-02-11T11:45:26.544Z,24.98
2023-02-11T11:46:26.696Z,24.98
2023-02-11T11:47:26.568Z,24.98
2023-02-11T11:48:26.545Z,24.97
2023-02-11T11:49:26.542Z,24.97
2023-02-11T11:50:26.547Z,24.97
2023-02-11T11:51:26.622Z,24.98
2023-02-11T11:52:26.565Z,24.97
2023-02-11T11:53:26.564Z,24.97
2023-02-11T11:54:26.559Z,24.97
2023-02-11T11:55:27.494Z,24.97
2023-02-11T11:56:26.568Z,24.97
2023-02-11T11:57:26.544Z,24.97
2023-02-11T11:58:26.560Z,24.95
2023-02-11T11:59:26.550Z,24.97
2023-02-11T12:00:26.556Z,24.98
2023-02-11T12:01:26.553Z,24.95
2023-02-11T12:02:26.683Z,24.98
2023-02-11T12:03:26.703Z,24.99
2023-02-11T12:04:26.560Z,24.95
2023-02-11T12:05:26.563Z,24.98
2023-02-11T12:06:26.561Z,24.98
2023-02-11T12:07:26.582Z,24.99
2023-02-11T12:08:26.558Z,24.97
2023-02-11T12:09:26.562Z,24.98
2023-02-11T12:10:26.570Z,24.98
2023-02-11T12:11:26.560Z,24.97
2023-02-11T12:12:26.570Z,24.98
2023-02-11T12:13:26.582Z,24.98
2023-02-11T12:14:26.599Z,24.95
2023-02-11T12:15:26.569Z,24.98
2023-02-11T12:16:26.657Z,24.98
2023-02-11T12:17:26.581Z,24.98
2023-02-11T12:18:26.571Z,24.97
2023-02-11T12:19:26.574Z,24.97
2023-02-11T12:20:26.591Z,24.97
2023-02-11T12:21:26.584Z,24.99
2023-02-11T12:22:26.596Z,24.95
2023-02-11T12:23:26.615Z,24.98
2023-02-11T12:24:26.592Z,24.99
2023-02-11T12:25:26.593Z,24.97
2023-02-11T12:26:26.601Z,24.97
2023-02-11T12:27:26.602Z,24.98
2023-02-11T12:28:26.667Z,24.98
2023-02-11T12:29:26.603Z,24.98
2023-02-11T12:30:26.614Z,24.97
2023-02-11T12:31:26.806Z,24.99
2023-02-11T12:32:26.650Z,24.98
2023-02-11T12:33:26.626Z,24.97
2023-02-11T12:34:26.645Z,24.97
2023-02-11T12:35:26.669Z,24.95
2023-02-11T12:36:26.741Z,24.95
2023-02-11T12:37:26.644Z,24.99
2023-02-11T12:38:26.648Z,24.98
2023-02-11T12:39:26.671Z,24.95
2023-02-11T12:40:26.674Z,24.98
2023-02-11T12:41:26.640Z,24.98
2023-02-11T12:42:26.658Z,24.97
2023-02-11T12:43:26.661Z,24.99
2023-02-11T12:44:26.666Z,24.98
2023-02-11T12:45:26.729Z,24.98
2023-02-11T12:46:26.668Z,24.98
2023-02-11T12:47:26.673Z,24.97
2023-02-11T12:48:26.675Z,24.98
2023-02-11T12:49:26.680Z,24.98
2023-02-11T12:50:26.686Z,24.97
2023-02-11T12:51:26.687Z,24.97
2023-02-11T12:52:26.688Z,24.98
2023-02-11T12:53:26.691Z,24.97
2023-02-11T12:54:26.707Z,24.97
2023-02-11T12:55:26.729Z,24.98
2023-02-11T12:56:26.699Z,24.97
2023-02-11T12:57:26.735Z,24.98
2023-02-11T12:58:35.656Z,24.97
2023-02-11T12:59:26.704Z,24.97
2023-02-11T13:00:26.692Z,24.97
2023-02-11T13:01:26.837Z,24.98
2023-02-11T13:02:26.778Z,24.94
2023-02-11T13:03:26.702Z,24.97
2023-02-11T13:04:26.725Z,24.98
2023-02-11T13:05:26.733Z,24.95
2023-02-11T13:06:26.715Z,24.97
2023-02-11T13:07:26.716Z,24.97
2023-02-11T13:08:26.737Z,24.97
2023-02-11T13:09:26.739Z,24.99
2023-02-11T13:10:26.739Z,24.98
2023-02-11T13:11:26.767Z,24.95
2023-02-11T13:12:26.741Z,24.98
2023-02-11T13:13:26.754Z,24.97
2023-02-11T13:14:26.754Z,24.98
2023-02-11T13:15:26.793Z,24.98
2023-02-11T13:16:26.775Z,24.97
2023-02-11T13:17:26.750Z,24.95
2023-02-11T13:18:26.763Z,24.97
2023-02-11T13:19:26.753Z,24.97
2023-02-11T13:20:26.754Z,24.97
2023-02-11T13:21:26.755Z,24.98
2023-02-11T13:22:26.793Z,24.97
2023-02-11T13:23:26.734Z,24.97
2023-02-11T13:24:26.740Z,24.97
2023-02-11T13:25:26.736Z,24.94
2023-02-11T13:26:26.748Z,24.97
2023-02-11T13:27:26.777Z,24.97
2023-02-11T13:28:26.934Z,24.97
2023-02-11T13:29:26.747Z,24.97
2023-02-11T13:30:26.952Z,24.94
2023-02-11T13:31:26.936Z,24.93
2023-02-11T13:32:26.774Z,24.97
2023-02-11T13:33:26.770Z,24.98
2023-02-11T13:34:26.773Z,24.95
2023-02-11T13:35:26.793Z,24.97
2023-02-11T13:36:26.811Z,24.97
2023-02-11T13:37:26.790Z,24.94
2023-02-11T13:38:26.799Z,24.97
2023-02-11T13:39:26.805Z,24.95
2023-02-11T13:40:26.801Z,24.98
2023-02-11T13:41:26.797Z,24.97
2023-02-11T13:42:26.802Z,24.98
2023-02-11T13:43:26.840Z,24.97
2023-02-11T13:44:26.814Z,24.97
2023-02-11T13:45:26.817Z,24.97
2023-02-11T13:46:26.880Z,24.95
2023-02-11T13:47:26.814Z,24.95
2023-02-11T13:48:27.513Z,24.94
2023-02-11T13:49:26.826Z,24.95
2023-02-11T13:50:26.832Z,24.94
2023-02-11T13:51:26.826Z,24.95
2023-02-11T13:52:26.874Z,24.97
2023-02-11T13:53:26.841Z,24.95
2023-02-11T13:54:26.868Z,24.94
2023-02-11T13:55:26.842Z,24.93
2023-02-11T13:56:26.852Z,24.95
2023-02-11T13:57:26.844Z,24.97
2023-02-11T13:58:26.847Z,24.93
2023-02-11T13:59:26.886Z,24.93
2023-02-11T14:00:26.851Z,24.95
2023-02-11T14:01:26.901Z,24.93
2023-02-11T14:02:26.882Z,24.95
2023-02-11T14:03:26.861Z,24.95
2023-02-11T14:04:26.864Z,24.94
2023-02-11T14:05:26.870Z,24.95
2023-02-11T14:06:26.868Z,24.94
2023-02-11T14:07:26.865Z,24.95
2023-02-11T14:08:26.866Z,24.95
2023-02-11T14:09:26.852Z,24.94
2023-02-11T14:10:26.855Z,24.97
2023-02-11T14:11:26.844Z,24.95
2023-02-11T14:12:26.839Z,24.95
2023-02-11T14:13:26.845Z,24.91
2023-02-11T14:14:26.870Z,24.97
2023-02-11T14:15:26.861Z,24.94
2023-02-11T14:16:37.557Z,24.94
2023-02-11T14:17:26.926Z,24.93
2023-02-11T14:18:26.838Z,24.93
2023-02-11T14:19:26.894Z,24.90
2023-02-11T14:20:26.841Z,24.94
2023-02-11T14:21:26.855Z,24.94
2023-02-11T14:22:26.834Z,24.93
2023-02-11T14:23:26.865Z,24.90
2023-02-11T14:24:26.837Z,24.93
2023-02-11T14:25:26.851Z,24.93
2023-02-11T14:26:26.840Z,24.94
2023-02-11T14:27:26.836Z,24.91
2023-02-11T14:28:26.984Z,24.93
2023-02-11T14:29:26.825Z,24.91
2023-02-11T14:30:26.826Z,24.93
2023-02-11T14:31:27.661Z,24.93
2023-02-11T14:32:26.834Z,24.91
2023-02-11T14:33:26.823Z,24.91
2023-02-11T14:34:27.757Z,24.93
2023-02-11T14:35:26.834Z,24.91
2023-02-11T14:36:26.818Z,24.90
2023-02-11T14:37:26.954Z,24.91
2023-02-11T14:38:26.825Z,24.93
2023-02-11T14:39:26.819Z,24.91
2023-02-11T14:40:26.825Z,24.88
2023-02-11T14:41:26.817Z,24.94
2023-02-11T14:42:26.824Z,24.94
2023-02-11T14:43:29.456Z,24.93
2023-02-11T14:44:26.821Z,24.90
2023-02-11T14:45:26.820Z,24.94
2023-02-11T14:46:26.844Z,24.93
2023-02-11T14:47:26.824Z,24.94
2023-02-11T14:48:26.802Z,24.93
2023-02-11T14:49:26.803Z,24.93
2023-02-11T14:50:26.795Z,24.91
2023-02-11T14:51:26.838Z,24.91
2023-02-11T14:52:26.798Z,24.90
2023-02-11T14:53:26.797Z,24.94
2023-02-11T14:54:26.806Z,24.91
2023-02-11T14:55:26.813Z,24.93
2023-02-11T14:56:26.807Z,24.94
2023-02-11T14:57:26.807Z,24.94
2023-02-11T14:58:26.826Z,24.91
2023-02-11T14:59:26.820Z,24.93
2023-02-11T15:00:26.896Z,24.91
2023-02-11T15:01:26.908Z,24.91
2023-02-11T15:02:26.823Z,24.91
2023-02-11T15:03:26.839Z,24.91
2023-02-11T15:04:26.808Z,24.91
2023-02-11T15:05:26.826Z,24.91
2023-02-11T15:06:26.953Z,24.91
2023-02-11T15:07:26.799Z,24.91
2023-02-11T15:08:26.794Z,24.91
2023-02-11T15:09:26.839Z,24.91
2023-02-11T15:10:26.789Z,24.88
2023-02-11T15:11:26.799Z,24.91
2023-02-11T15:12:26.788Z,24.91
2023-02-11T15:13:26.788Z,24.90
2023-02-11T15:14:26.778Z,24.90
2023-02-11T15:15:26.782Z,24.88
2023-02-11T15:16:26.782Z,24.88
2023-02-11T15:17:26.768Z,24.93
2023-02-11T15:18:26.773Z,24.90
2023-02-11T15:19:26.804Z,24.91
2023-02-11T15:20:26.760Z,24.91
2023-02-11T15:21:27.005Z,24.93
2023-02-11T15:22:26.768Z,24.88
2023-02-11T15:23:26.756Z,24.91
2023-02-11T15:24:26.786Z,24.88
2023-02-11T15:25:26.773Z,24.91
2023-02-11T15:26:26.755Z,24.91
2023-02-11T15:27:26.761Z,24.91
2023-02-11T15:28:26.827Z,24.91
2023-02-11T15:29:26.775Z,24.91
2023-02-11T15:30:26.762Z,24.91
2023-02-11T15:31:26.962Z,24.90
2023-02-11T15:32:26.974Z,24.91
2023-02-11T15:33:26.772Z,24.93
2023-02-11T15:34:26.771Z,24.93
2023-02-11T15:35:26.803Z,24.93
2023-02-11T15:36:26.749Z,24.88
2023-02-11T15:37:26.753Z,24.91
2023-02-11T15:38:26.773Z,24.87
2023-02-11T15:39:26.755Z,24.90
2023-02-11T15:40:26.744Z,24.88
2023-02-11T15:41:26.734Z,24.90
2023-02-11T15:42:26.759Z,24.88
2023-02-11T15:43:26.741Z,24.88
2023-02-11T15:44:26.733Z,24.91
2023-02-11T15:45:27.680Z,24.90
2023-02-11T15:46:26.759Z,24.90
2023-02-11T15:47:26.724Z,24.93
2023-02-11T15:48:26.725Z,24.88
2023-02-11T15:49:26.725Z,24.91
2023-02-11T15:50:26.717Z,24.90
2023-02-11T15:51:26.736Z,24.90
2023-02-11T15:52:26.709Z,24.90
2023-02-11T15:53:26.712Z,24.90
2023-02-11T15:54:26.724Z,24.88
2023-02-11T15:55:26.697Z,24.91
2023-02-11T15:56:26.743Z,24.90
2023-02-11T15:57:26.684Z,24.90
2023-02-11T15:58:26.712Z,24.88
2023-02-11T15:59:26.686Z,24.88
2023-02-11T16:00:26.704Z,24.90
2023-02-11T16:01:26.745Z,24.88
2023-02-11T16:02:26.679Z,24.90
2023-02-11T16:03:26.670Z,24.88
2023-02-11T16:04:26.735Z,24.88
2023-02-11T16:05:26.676Z,24.88
2023-02-11T16:06:26.672Z,24.90
2023-02-11T16:07:26.700Z,24.88
2023-02-11T16:08:26.675Z,24.90
2023-02-11T16:09:26.668Z,24.87
2023-02-11T16:10:26.656Z,24.87
2023-02-11T16:11:26.695Z,24.88
2023-02-11T16:12:26.663Z,24.87
2023-02-11T16:13:26.667Z,24.87
2023-02-11T16:14:26.677Z,24.87
2023-02-11T16:15:26.665Z,24.87
2023-02-11T16:16:26.703Z,24.88
2023-02-11T16:17:26.674Z,24.85
2023-02-11T16:18:37.415Z,24.85
2023-02-11T16:19:26.677Z,24.85
2023-02-11T16:20:26.698Z,24.85
2023-02-11T16:21:26.685Z,24.88
2023-02-11T16:22:26.680Z,24.88
2023-02-11T16:23:26.697Z,24.87
2023-02-11T16:24:26.685Z,24.87
2023-02-11T16:25:26.682Z,24.85
2023-02-11T16:26:27.534Z,24.88
2023-02-11T16:27:26.680Z,24.87
2023-02-11T16:28:26.774Z,24.88
2023-02-11T16:29:26.697Z,24.88
2023-02-11T16:30:26.733Z,24.90
2023-02-11T16:31:26.821Z,24.87
2023-02-11T16:32:26.685Z,24.88
2023-02-11T16:33:26.677Z,24.87
2023-02-11T16:35:26.688Z,24.88
2023-02-11T16:36:26.679Z,24.88
2023-02-11T16:37:26.680Z,24.87
2023-02-11T16:38:26.718Z,24.88
2023-02-11T16:39:26.699Z,24.88
2023-02-11T16:40:26.679Z,24.90
2023-02-11T16:41:26.677Z,24.87
2023-02-11T16:42:26.691Z,24.88
2023-02-11T16:43:26.681Z,24.90
2023-02-11T16:44:26.690Z,24.88
2023-02-11T16:45:26.682Z,24.90
2023-02-11T16:46:26.685Z,24.87
2023-02-11T16:47:26.699Z,24.88
2023-02-11T16:48:26.761Z,24.90
2023-02-11T16:49:26.693Z,24.90
2023-02-11T16:50:26.698Z,24.88
2023-02-11T16:51:26.703Z,24.90
2023-02-11T16:52:26.712Z,24.88
2023-02-11T16:53:26.692Z,24.90
2023-02-11T16:54:26.697Z,24.93
2023-02-11T16:55:26.733Z,24.88
2023-02-11T16:56:26.708Z,24.90
2023-02-11T16:57:29.653Z,24.91
2023-02-11T16:58:26.704Z,24.90
2023-02-11T16:59:26.706Z,24.87
2023-02-11T17:00:26.707Z,24.93
2023-02-11T17:01:26.804Z,24.90
2023-02-11T17:02:27.101Z,24.87
2023-02-11T17:03:29.776Z,24.88
2023-02-11T17:04:26.789Z,24.90
2023-02-11T17:05:26.711Z,24.88
2023-02-11T17:06:26.713Z,24.90
2023-02-11T17:07:26.705Z,24.88
2023-02-11T17:08:26.702Z,24.90
2023-02-11T17:09:30.054Z,24.88
2023-02-11T17:10:26.709Z,24.88
2023-02-11T17:11:26.728Z,24.88
2023-02-11T17:12:26.710Z,24.88
2023-02-11T17:13:26.725Z,24.90
2023-02-11T17:14:26.705Z,24.90
2023-02-11T17:15:26.707Z,24.88
2023-02-11T17:16:26.786Z,24.85
2023-02-11T17:17:26.721Z,24.87
2023-02-11T17:18:26.721Z,24.90
2023-02-11T17:19:26.732Z,24.90
2023-02-11T17:20:26.723Z,24.91
2023-02-11T17:21:29.833Z,24.90
2023-02-11T17:22:26.730Z,24.90
2023-02-11T17:23:26.726Z,24.90
2023-02-11T17:24:26.727Z,24.90
2023-02-11T17:25:26.723Z,24.88
2023-02-11T17:26:26.733Z,24.88
2023-02-11T17:27:26.735Z,24.90
2023-02-11T17:28:26.813Z,24.87
2023-02-11T17:29:26.715Z,24.90
2023-02-11T17:30:26.718Z,24.88
2023-02-11T17:31:26.821Z,24.88
2023-02-11T17:32:26.701Z,24.90
2023-02-11T17:33:26.702Z,24.88
2023-02-11T17:34:26.704Z,24.88
2023-02-11T17:35:26.697Z,24.88
2023-02-11T17:36:26.701Z,24.87
2023-02-11T17:37:26.717Z,24.87
2023-02-11T17:38:26.693Z,24.88
2023-02-11T17:39:26.731Z,24.87
2023-02-11T17:40:26.690Z,24.88
2023-02-11T17:41:26.720Z,24.87
2023-02-11T17:42:26.691Z,24.90
2023-02-11T17:43:26.706Z,24.87
2023-02-11T17:44:26.680Z,24.85
2023-02-11T17:45:27.156Z,24.87
2023-02-11T17:46:26.680Z,24.88
2023-02-11T17:47:26.671Z,24.88
2023-02-11T17:48:26.669Z,24.85
2023-02-11T17:49:26.667Z,24.88
2023-02-11T17:50:29.202Z,24.87
2023-02-11T17:51:26.673Z,24.88
2023-02-11T17:52:26.652Z,24.90
2023-02-11T17:53:26.653Z,24.88
2023-02-11T17:54:26.655Z,24.90
2023-02-11T17:55:26.657Z,24.90
2023-02-11T17:56:26.656Z,24.88
2023-02-11T17:57:26.659Z,24.87
2023-02-11T17:58:26.649Z,24.88
2023-02-11T17:59:26.670Z,24.88
2023-02-11T18:00:26.650Z,24.87
2023-02-11T18:01:26.787Z,24.88
2023-02-11T18:02:26.656Z,24.87
2023-02-11T18:03:26.653Z,24.88
2023-02-11T18:04:26.687Z,24.87
2023-02-11T18:05:26.662Z,24.88
2023-02-11T18:06:26.866Z,24.90
2023-02-11T18:07:26.681Z,24.88
2023-02-11T18:08:26.677Z,24.87
2023-02-11T18:09:26.688Z,24.90
2023-02-11T18:10:26.685Z,24.87
2023-02-11T18:11:26.690Z,24.88
2023-02-11T18:12:26.714Z,24.87
2023-02-11T18:13:26.689Z,24.90
2023-02-11T18:14:26.684Z,24.90
2023-02-11T18:15:26.709Z,24.88
2023-02-11T18:16:26.707Z,24.88
2023-02-11T18:17:26.693Z,24.87
2023-02-11T18:18:26.657Z,24.90
2023-02-11T18:19:26.659Z,24.87
2023-02-11T18:20:26.667Z,24.88
2023-02-11T18:21:26.647Z,24.87
2023-02-11T18:22:26.645Z,24.88
2023-02-11T18:23:26.640Z,24.90
2023-02-11T18:24:26.641Z,24.90
2023-02-11T18:25:26.644Z,24.88
2023-02-11T18:26:26.635Z,24.88
2023-02-11T18:27:26.632Z,24.90
2023-02-11T18:28:26.700Z,24.88
2023-02-11T18:29:26.651Z,24.90
2023-02-11T18:30:26.659Z,24.88
2023-02-11T18:31:26.744Z,24.88
2023-02-11T18:32:26.633Z,24.85
2023-02-11T18:33:26.640Z,24.90
2023-02-11T18:34:26.631Z,24.87
2023-02-11T18:35:26.702Z,24.88
2023-02-11T18:36:26.615Z,24.90
2023-02-11T18:37:26.608Z,24.90
2023-02-11T18:38:26.609Z,24.88
2023-02-11T18:39:26.611Z,24.90
2023-02-11T18:40:26.614Z,24.88
2023-02-11T18:41:26.604Z,24.85
2023-02-11T18:42:26.614Z,24.88
2023-02-11T18:43:26.592Z,24.88
2023-02-11T18:44:26.600Z,24.85
2023-02-11T18:45:26.585Z,24.87
2023-02-11T18:46:26.745Z,24.87
2023-02-11T18:47:26.603Z,24.88
2023-02-11T18:48:26.589Z,24.88
2023-02-11T18:49:26.579Z,24.88
2023-02-11T18:50:26.566Z,24.90
2023-02-11T18:51:26.568Z,24.87
2023-02-11T18:52:26.567Z,24.87
2023-02-11T18:53:26.558Z,24.90
2023-02-11T18:54:26.563Z,24.88
2023-02-11T18:55:26.557Z,24.90
2023-02-11T18:56:26.552Z,24.88
2023-02-11T18:57:26.555Z,24.88
2023-02-11T18:58:26.546Z,24.90
2023-02-11T18:59:26.535Z,24.87
2023-02-11T19:00:26.548Z,24.88
2023-02-11T19:01:26.573Z,24.85
2023-02-11T19:02:26.556Z,24.87
2023-02-11T19:03:26.561Z,24.87
2023-02-11T19:04:26.550Z,24.85
2023-02-11T19:05:26.532Z,24.88
2023-02-11T19:06:26.546Z,24.90
2023-02-11T19:07:26.564Z,24.85
2023-02-11T19:08:26.541Z,24.87
2023-02-11T19:09:26.531Z,24.90
2023-02-11T19:10:26.533Z,24.85
2023-02-11T19:11:26.531Z,24.90
2023-02-11T19:12:26.520Z,24.88
2023-02-11T19:13:26.523Z,24.88
2023-02-11T19:14:26.526Z,24.88
2023-02-11T19:15:26.524Z,24.90
2023-02-11T19:16:26.644Z,24.88
2023-02-11T19:17:26.522Z,24.90
2023-02-11T19:18:26.523Z,24.87
2023-02-11T19:19:26.546Z,24.87
2023-02-11T19:20:26.525Z,24.88
2023-02-11T19:21:26.541Z,24.87
2023-02-11T19:22:26.561Z,24.87
2023-02-11T19:23:26.521Z,24.88
2023-02-11T19:24:26.529Z,24.87
2023-02-11T19:25:26.522Z,24.90
2023-02-11T19:26:26.537Z,24.87
2023-02-11T19:27:26.557Z,24.88
2023-02-11T19:28:26.660Z,24.88
2023-02-11T19:29:26.693Z,24.90
2023-02-11T19:30:26.682Z,24.88
2023-02-11T19:31:26.918Z,24.90
2023-02-11T19:32:26.692Z,24.85
2023-02-11T19:33:26.689Z,24.88
2023-02-11T19:34:26.687Z,24.87
2023-02-11T19:35:26.702Z,24.87
2023-02-11T19:36:26.717Z,24.87
2023-02-11T19:37:26.714Z,24.87
2023-02-11T19:38:26.663Z,24.87
2023-02-11T19:39:26.663Z,24.88
2023-02-11T19:40:26.659Z,24.88
2023-02-11T19:41:26.660Z,24.85
2023-02-11T19:42:27.709Z,24.87
2023-02-11T19:43:26.657Z,24.88
2023-02-11T19:44:26.635Z,24.87
2023-02-11T19:45:26.630Z,24.90
2023-02-11T19:46:26.725Z,24.87
2023-02-11T19:47:26.618Z,24.87
2023-02-11T19:48:26.644Z,24.88
2023-02-11T19:49:26.663Z,24.88
2023-02-11T19:50:26.613Z,24.88
2023-02-11T19:51:26.636Z,24.85
2023-02-11T19:52:26.618Z,24.88
2023-02-11T19:53:26.623Z,24.88
2023-02-11T19:54:26.657Z,24.87
2023-02-11T19:55:26.623Z,24.85
2023-02-11T19:56:26.615Z,24.87
2023-02-11T19:57:26.624Z,24.87
2023-02-11T19:58:26.610Z,24.87
2023-02-11T19:59:26.608Z,24.87
2023-02-11T20:00:26.604Z,24.88
2023-02-11T20:01:26.670Z,24.88
2023-02-11T20:02:26.705Z,24.87
2023-02-11T20:03:26.611Z,24.87
2023-02-11T20:04:26.640Z,24.87
2023-02-11T20:05:26.605Z,24.88
2023-02-11T20:06:26.603Z,24.88
2023-02-11T20:07:26.622Z,24.88
2023-02-11T20:08:26.611Z,24.87
2023-02-11T20:09:26.634Z,24.87
2023-02-11T20:10:26.599Z,24.87
2023-02-11T20:11:26.602Z,24.85
2023-02-11T20:12:26.595Z,24.88
2023-02-11T20:13:26.589Z,24.85
2023-02-11T20:14:28.000Z,24.85
2023-02-11T20:15:26.732Z,24.87
2023-02-11T20:16:37.099Z,24.87
2023-02-11T20:17:26.712Z,24.87
2023-02-11T20:18:26.707Z,24.85
2023-02-11T20:19:26.715Z,24.85
2023-02-11T20:20:26.731Z,24.88
2023-02-11T20:21:26.699Z,24.88
2023-02-11T20:22:26.694Z,24.87
2023-02-11T20:23:26.727Z,24.84
2023-02-11T20:24:26.692Z,24.88
2023-02-11T20:25:26.693Z,24.85
2023-02-11T20:26:26.697Z,24.85
2023-02-11T20:27:26.708Z,24.87
2023-02-11T20:28:26.722Z,24.85
2023-02-11T20:29:26.690Z,24.85
2023-02-11T20:30:26.682Z,24.87
2023-02-11T20:31:27.378Z,24.85
2023-02-11T20:32:26.769Z,24.87
2023-02-11T20:33:26.706Z,24.88
2023-02-11T20:34:26.667Z,24.85
2023-02-11T20:35:26.683Z,24.84
2023-02-11T20:36:26.672Z,24.85
2023-02-11T20:37:26.686Z,24.85
2023-02-11T20:38:26.676Z,24.90
2023-02-11T20:39:26.692Z,24.87
2023-02-11T20:40:26.670Z,24.87
2023-02-11T20:41:26.677Z,24.85
2023-02-11T20:42:26.689Z,24.85
2023-02-11T20:43:26.678Z,24.85
2023-02-11T20:44:26.678Z,24.85
2023-02-11T20:45:26.675Z,24.84
2023-02-11T20:46:26.771Z,24.84
2023-02-11T20:47:27.610Z,24.84
2023-02-11T20:48:26.679Z,24.84
2023-02-11T20:49:26.680Z,24.84
2023-02-11T20:50:26.699Z,24.84
2023-02-11T20:51:26.721Z,24.83
2023-02-11T20:52:26.687Z,24.85
2023-02-11T20:53:26.692Z,24.84
2023-02-11T20:54:26.693Z,24.85
2023-02-11T20:55:26.705Z,24.85
2023-02-11T20:56:26.708Z,24.83
2023-02-11T20:57:26.685Z,24.84
2023-02-11T20:58:26.731Z,24.84
2023-02-11T20:59:26.692Z,24.84
2023-02-11T21:00:26.677Z,24.84
2023-02-11T21:01:26.690Z,24.83
2023-02-11T21:02:26.675Z,24.84
2023-02-11T21:03:26.762Z,24.85
2023-02-11T21:04:26.678Z,24.84
2023-02-11T21:05:26.661Z,24.84
2023-02-11T21:06:26.665Z,24.83
2023-02-11T21:07:26.649Z,24.85
2023-02-11T21:08:26.643Z,24.84
2023-02-11T21:09:26.646Z,24.84
2023-02-11T21:10:26.636Z,24.84
2023-02-11T21:11:26.656Z,24.84
2023-02-11T21:12:26.625Z,24.84
2023-02-11T21:13:26.673Z,24.83
2023-02-11T21:14:26.623Z,24.85
2023-02-11T21:15:26.616Z,24.84
2023-02-11T21:16:26.725Z,24.83
2023-02-11T21:17:26.636Z,24.84
2023-02-11T21:18:26.686Z,24.83
2023-02-11T21:19:26.607Z,24.84
2023-02-11T21:20:26.610Z,24.84
2023-02-11T21:21:26.603Z,24.84
2023-02-11T21:22:26.594Z,24.85
2023-02-11T21:23:26.628Z,24.84
2023-02-11T21:24:26.591Z,24.85
2023-02-11T21:25:26.602Z,24.87
2023-02-11T21:26:26.598Z,24.85
2023-02-11T21:27:26.624Z,24.84
2023-02-11T21:28:26.760Z,24.85
2023-02-11T21:29:26.609Z,24.85
2023-02-11T21:30:26.605Z,24.84
2023-02-11T21:31:26.798Z,24.81
2023-02-11T21:32:26.607Z,24.83
2023-02-11T21:33:26.624Z,24.81
2023-02-11T21:34:26.663Z,24.83
2023-02-11T21:35:26.623Z,24.84
2023-02-11T21:36:26.610Z,24.84
2023-02-11T21:37:26.617Z,24.85
2023-02-11T21:38:26.613Z,24.83
2023-02-11T21:39:26.610Z,24.81
2023-02-11T21:40:26.607Z,24.84
2023-02-11T21:41:26.613Z,24.85
2023-02-11T21:42:26.617Z,24.84
2023-02-11T21:43:26.720Z,24.85
2023-02-11T21:44:26.607Z,24.85
2023-02-11T21:45:26.605Z,24.85
2023-02-11T21:46:26.783Z,24.84
2023-02-11T21:47:26.606Z,24.83
2023-02-11T21:48:26.611Z,24.83
2023-02-11T21:49:26.598Z,24.85
2023-02-11T21:50:26.589Z,24.83
2023-02-11T21:51:26.627Z,24.85
2023-02-11T21:52:26.585Z,24.85
2023-02-11T21:53:26.572Z,24.83
2023-02-11T21:54:26.561Z,24.83
2023-02-11T21:55:26.570Z,24.85
2023-02-11T21:56:26.580Z,24.85
2023-02-11T21:57:26.581Z,24.83
2023-02-11T21:58:26.574Z,24.83
2023-02-11T21:59:26.594Z,24.84
2023-02-11T22:00:26.595Z,24.85
2023-02-11T22:01:26.586Z,24.83
2023-02-11T22:02:26.578Z,24.85
2023-02-11T22:03:26.572Z,24.85
2023-02-11T22:04:26.649Z,24.83